Messwerte Hamilton

Temperatur

Temperatur
°C
1617994800 15.00 15.00 27
1617998400 16.00 16.00 27
1618002000 17.00 17.00
1618005600 18.00 18.00 26
1618009200 19.00 19.00 24
1618012800 20.00 20.00 17
1618016400 21.00 21.00 15
1618020000 22.00 22.00 15
1618023600 23.00 23.00 16
1618027200 0.00 0.00 14
1618030800 1.00 1.00 13
1618034400 2.00 2.00 12
1618038000 3.00 3.00 11
1618041600 4.00 4.00 13
1618045200 5.00 5.00 13
1618048800 6.00 6.00 13
1618052400 7.00 7.00 14
1618056000 8.00 8.00 14
1618059600 9.00 9.00
1618063200 10.00 10.00
1618066800 11.00 11.00
1618070400 12.00 12.00 21
1618074000 13.00 13.00 18
1618077600 14.00 14.00 17

Aktuellste Messwerte

Wettercharakter
Wetter: bedeckt, wenig Regen
Temperatur
17 °C
Feuchtigkeit
94 %
Wind
10 km/hWindrichtung: Südost
Luftdruck
1003 hPa
Messzeit: 10. April 2021, 15.00Datenquelle: METAR

Weitere Messstationen in der Nähe

Messstation Temperatur Entfernung
Cincinnati 17 °C 30 km
Dayton 18 °C 36 km
Cincinnati 17 °C 37 km
Wilmington 17 °C 62 km
Dayton 19 °C 66 km
Dayton 18 °C 66 km
Springfield 19 °C 79 km

Wind

Windrichtung Böen Mittelwind
° km/h km/h
1617994800 15.00 14.00 - 15.00 220° 30 20
1617998400 16.00 15.00 - 16.00 200° 30 15
1618002000 17.00 16.00 - 17.00
1618005600 18.00 17.00 - 18.00 210° 45 15
1618009200 19.00 18.00 - 19.00 5
1618012800 20.00 19.00 - 20.00 360° 45 15
1618016400 21.00 20.00 - 21.00 100° 5
1618020000 22.00 21.00 - 22.00 90° 5
1618023600 23.00 22.00 - 23.00 290° 10
1618027200 0.00 23.00 - 0.00 110° 5
1618030800 1.00 0.00 - 1.00 100° 5
1618034400 2.00 1.00 - 2.00 0
1618038000 3.00 2.00 - 3.00 0
1618041600 4.00 3.00 - 4.00 110° 5
1618045200 5.00 4.00 - 5.00 70° 5
1618048800 6.00 5.00 - 6.00 100° 5
1618052400 7.00 6.00 - 7.00 90° 5
1618056000 8.00 7.00 - 8.00 70° 5
1618059600 9.00 8.00 - 9.00
1618063200 10.00 9.00 - 10.00
1618066800 11.00 10.00 - 11.00
1618070400 12.00 11.00 - 12.00 190° 15
1618074000 13.00 12.00 - 13.00 210° 25 15
1618077600 14.00 13.00 - 14.00 5

Ihre Wetterstation

Fehlt Ihre Wetterstation auf unserem Portal?

Schreiben Sie an network@meteonews.ch

Klima

Wann ist es am wärmsten? Wann regnet es am wenigsten? Unsere Klimadaten geben Auskunft.